createdAt,value
2022-11-05T00:01:21.384Z,97.84
2022-11-05T00:03:38.765Z,97.07
2022-11-05T00:05:55.925Z,96.97
2022-11-05T00:08:12.972Z,98.03
2022-11-05T00:10:29.893Z,98.13
2022-11-05T00:12:46.962Z,96.52
2022-11-05T00:15:04.292Z,96.93
2022-11-05T00:17:24.755Z,98.33
2022-11-05T00:19:42.229Z,97.14
2022-11-05T00:22:00.804Z,97.02
2022-11-05T00:24:23.204Z,96.90
2022-11-05T00:26:42.574Z,97.22
2022-11-05T00:28:59.576Z,97.76
2022-11-05T00:31:16.893Z,98.00
2022-11-05T00:33:33.954Z,95.76
2022-11-05T00:35:50.819Z,95.53
2022-11-05T00:38:07.759Z,96.27
2022-11-05T00:40:25.227Z,94.92
2022-11-05T00:42:43.171Z,94.38
2022-11-05T00:45:00.221Z,94.20
2022-11-05T00:47:17.512Z,92.54
2022-11-05T00:49:34.988Z,92.86
2022-11-05T00:51:52.076Z,93.47
2022-11-05T00:54:09.427Z,92.82
2022-11-05T00:56:26.729Z,92.61
2022-11-05T00:58:45.059Z,93.76
2022-11-05T01:01:03.259Z,93.93
2022-11-05T01:03:21.540Z,92.73
2022-11-05T01:05:41.841Z,92.89
2022-11-05T01:07:59.168Z,92.14
2022-11-05T01:10:17.071Z,92.80
2022-11-05T01:12:34.166Z,92.22
2022-11-05T01:14:51.160Z,92.37
2022-11-05T01:17:09.549Z,92.64
2022-11-05T01:19:27.207Z,93.25
2022-11-05T01:21:44.330Z,92.54
2022-11-05T01:24:01.370Z,94.05
2022-11-05T01:26:19.227Z,93.60
2022-11-05T01:28:36.333Z,94.23
2022-11-05T01:30:54.549Z,93.40
2022-11-05T01:33:11.916Z,93.74
2022-11-05T01:35:29.254Z,93.95
2022-11-05T01:37:46.504Z,93.99
2022-11-05T01:40:04.375Z,93.86
2022-11-05T01:42:22.390Z,94.24
2022-11-05T01:44:40.380Z,94.22
2022-11-05T01:46:57.417Z,94.38
2022-11-05T01:49:14.931Z,93.96
2022-11-05T01:51:31.945Z,93.31
2022-11-05T01:53:49.192Z,94.54
2022-11-05T01:56:06.138Z,93.36
2022-11-05T01:58:23.188Z,94.79
2022-11-05T02:00:41.575Z,94.51
2022-11-05T02:02:58.971Z,94.72
2022-11-05T02:05:17.287Z,94.75
2022-11-05T02:07:35.528Z,93.30
2022-11-05T02:09:52.541Z,94.28
2022-11-05T02:12:09.815Z,94.47
2022-11-05T02:14:26.838Z,94.62
2022-11-05T02:16:44.073Z,94.98
2022-11-05T02:19:01.102Z,94.26
2022-11-05T02:21:18.251Z,94.05
2022-11-05T02:23:35.553Z,94.15
2022-11-05T02:25:52.561Z,95.82
2022-11-05T02:28:09.880Z,95.41
2022-11-05T02:30:29.153Z,95.53
2022-11-05T02:32:47.131Z,95.84
2022-11-05T02:35:04.327Z,95.52
2022-11-05T02:37:21.393Z,95.19
2022-11-05T02:39:38.733Z,95.76
2022-11-05T02:42:00.518Z,95.96
2022-11-05T02:44:20.895Z,94.67
2022-11-05T02:46:37.957Z,94.69
2022-11-05T02:48:56.215Z,94.68
2022-11-05T02:51:14.454Z,94.69
2022-11-05T02:53:31.377Z,94.60
2022-11-05T02:55:49.337Z,94.80
2022-11-05T02:58:06.393Z,95.27
2022-11-05T03:00:23.342Z,96.50
2022-11-05T03:02:40.543Z,94.94
2022-11-05T03:04:57.595Z,95.02
2022-11-05T03:07:14.844Z,94.67
2022-11-05T03:09:31.805Z,94.25
2022-11-05T03:11:48.836Z,94.57
2022-11-05T03:14:05.827Z,94.11
2022-11-05T03:16:22.793Z,93.97
2022-11-05T03:18:40.044Z,93.77
2022-11-05T03:20:57.046Z,94.67
2022-11-05T03:23:14.183Z,93.23
2022-11-05T03:25:31.289Z,93.00
2022-11-05T03:27:49.538Z,93.69
2022-11-05T03:30:06.522Z,93.48
2022-11-05T03:32:23.537Z,94.62
2022-11-05T03:34:40.398Z,94.90
2022-11-05T03:36:57.318Z,94.95
2022-11-05T03:39:14.348Z,94.24
2022-11-05T03:41:31.408Z,95.12
2022-11-05T03:43:48.367Z,95.76
2022-11-05T03:46:05.364Z,94.44
2022-11-05T03:48:22.449Z,95.94
2022-11-05T03:50:41.541Z,95.57
2022-11-05T03:52:58.777Z,95.77
2022-11-05T03:55:15.838Z,94.51
2022-11-05T03:57:33.048Z,95.84
2022-11-05T03:59:49.988Z,95.23
2022-11-05T04:02:07.294Z,94.60
2022-11-05T04:04:24.961Z,94.96
2022-11-05T04:06:41.970Z,94.66
2022-11-05T04:08:58.966Z,93.58
2022-11-05T04:11:16.275Z,93.22
2022-11-05T04:13:34.245Z,93.33
2022-11-05T04:15:51.251Z,93.47
2022-11-05T04:18:09.486Z,93.92
2022-11-05T04:20:26.498Z,93.60
2022-11-05T04:22:43.758Z,93.93
2022-11-05T04:25:00.644Z,93.61
2022-11-05T04:27:18.876Z,93.12
2022-11-05T04:29:35.868Z,93.77
2022-11-05T04:31:52.851Z,93.07
2022-11-05T04:34:10.094Z,93.30
2022-11-05T04:36:27.076Z,93.36
2022-11-05T04:38:44.105Z,93.42
2022-11-05T04:41:01.062Z,93.61
2022-11-05T04:43:18.621Z,93.53
2022-11-05T04:45:35.925Z,93.85
2022-11-05T04:47:52.894Z,93.53
2022-11-05T04:50:10.184Z,94.34
2022-11-05T04:52:28.174Z,94.30
2022-11-05T04:54:45.393Z,94.50
2022-11-05T04:57:02.438Z,94.28
2022-11-05T04:59:19.456Z,94.52
2022-11-05T05:01:37.904Z,94.19
2022-11-05T05:03:55.023Z,95.07
2022-11-05T05:06:12.210Z,95.28
2022-11-05T05:08:29.438Z,94.69
2022-11-05T05:10:47.309Z,94.91
2022-11-05T05:13:04.219Z,95.06
2022-11-05T05:15:21.481Z,95.34
2022-11-05T05:17:38.514Z,95.74
2022-11-05T05:19:55.451Z,95.08
2022-11-05T05:22:12.639Z,94.55
2022-11-05T05:24:29.865Z,95.63
2022-11-05T05:26:46.856Z,95.00
2022-11-05T05:29:04.817Z,95.41
2022-11-05T05:31:21.850Z,95.85
2022-11-05T05:33:40.035Z,95.37
2022-11-05T05:35:57.320Z,94.88
2022-11-05T05:38:14.514Z,94.99
2022-11-05T05:40:31.559Z,95.42
2022-11-05T05:42:48.622Z,94.90
2022-11-05T05:45:05.860Z,94.80
2022-11-05T05:47:22.879Z,94.63
2022-11-05T05:49:40.054Z,94.59
2022-11-05T05:51:57.245Z,94.40
2022-11-05T05:54:14.208Z,94.08
2022-11-05T05:56:31.165Z,93.36
2022-11-05T05:58:48.154Z,93.65
2022-11-05T06:01:05.023Z,94.40
2022-11-05T06:03:22.325Z,94.13
2022-11-05T06:05:39.288Z,94.03
2022-11-05T06:07:56.294Z,94.07
2022-11-05T06:10:13.557Z,93.86
2022-11-05T06:12:30.586Z,93.67
2022-11-05T06:14:47.804Z,94.08
2022-11-05T06:17:05.674Z,93.94
2022-11-05T06:19:22.678Z,93.85
2022-11-05T06:21:39.737Z,94.06
2022-11-05T06:23:56.648Z,93.98
2022-11-05T06:26:13.887Z,94.05
2022-11-05T06:28:30.763Z,94.79
2022-11-05T06:30:47.778Z,93.97
2022-11-05T06:33:04.793Z,93.61
2022-11-05T06:35:22.030Z,93.11
2022-11-05T06:37:39.011Z,93.45
2022-11-05T06:39:56.283Z,93.28
2022-11-05T06:42:20.563Z,93.54
2022-11-05T06:44:37.892Z,93.64
2022-11-05T06:46:55.063Z,93.28
2022-11-05T06:49:12.034Z,93.26
2022-11-05T06:51:30.287Z,93.28
2022-11-05T06:53:47.546Z,93.21
2022-11-05T06:56:05.458Z,92.92
2022-11-05T06:58:22.431Z,92.65
2022-11-05T07:00:39.538Z,93.19
2022-11-05T07:02:56.590Z,93.25
2022-11-05T07:05:14.864Z,93.65
2022-11-05T07:07:31.774Z,93.86
2022-11-05T07:09:48.911Z,93.83
2022-11-05T07:12:05.902Z,93.79
2022-11-05T07:14:23.099Z,93.38
2022-11-05T07:16:40.335Z,93.21
2022-11-05T07:18:57.278Z,93.04
2022-11-05T07:21:14.551Z,93.00
2022-11-05T07:23:31.751Z,92.96
2022-11-05T07:25:48.770Z,93.06
2022-11-05T07:28:05.758Z,93.29
2022-11-05T07:30:22.948Z,93.92
2022-11-05T07:32:40.054Z,93.58
2022-11-05T07:34:56.944Z,93.63
2022-11-05T07:37:13.950Z,93.68
2022-11-05T07:39:30.963Z,94.16
2022-11-05T07:41:47.989Z,93.82
2022-11-05T07:44:05.208Z,93.66
2022-11-05T07:46:22.260Z,93.49
2022-11-05T07:48:39.278Z,93.91
2022-11-05T07:50:56.512Z,93.72
2022-11-05T07:53:13.984Z,93.22
2022-11-05T07:55:32.124Z,92.66
2022-11-05T07:57:49.087Z,92.07
2022-11-05T08:00:06.126Z,92.18
2022-11-05T08:02:24.215Z,92.26
2022-11-05T08:04:41.631Z,92.04
2022-11-05T08:06:59.830Z,91.65
2022-11-05T08:09:16.906Z,92.37
2022-11-05T08:11:34.494Z,92.44
2022-11-05T08:13:52.509Z,92.31
2022-11-05T08:16:09.525Z,92.71
2022-11-05T08:18:27.391Z,92.73
2022-11-05T08:20:44.338Z,93.32
2022-11-05T08:23:02.258Z,93.15
2022-11-05T08:25:19.258Z,92.32
2022-11-05T08:27:36.245Z,92.52
2022-11-05T08:29:53.262Z,92.23
2022-11-05T08:32:10.543Z,92.74
2022-11-05T08:34:27.496Z,92.45
2022-11-05T08:36:44.733Z,92.90
2022-11-05T08:39:01.980Z,92.51
2022-11-05T08:41:19.978Z,92.80
2022-11-05T08:43:37.275Z,92.94
2022-11-05T08:45:54.279Z,93.13
2022-11-05T08:48:11.529Z,93.38
2022-11-05T08:50:28.504Z,92.81
2022-11-05T08:52:45.517Z,92.16
2022-11-05T08:55:02.543Z,91.91
2022-11-05T08:57:19.798Z,91.72
2022-11-05T08:59:37.091Z,92.05
2022-11-05T09:01:54.080Z,91.78
2022-11-05T09:04:11.199Z,92.59
2022-11-05T09:06:28.273Z,90.98
2022-11-05T09:08:45.470Z,91.14
2022-11-05T09:11:02.754Z,92.21
2022-11-05T09:13:20.419Z,92.60
2022-11-05T09:15:37.638Z,91.86
2022-11-05T09:17:54.491Z,90.67
2022-11-05T09:20:11.752Z,90.75
2022-11-05T09:22:28.768Z,90.53
2022-11-05T09:24:45.688Z,90.29
2022-11-05T09:27:02.926Z,87.60
2022-11-05T09:29:21.174Z,87.72
2022-11-05T09:31:38.188Z,86.51
2022-11-05T09:33:56.394Z,84.58
2022-11-05T09:36:13.399Z,83.80
2022-11-05T09:38:30.695Z,83.72
2022-11-05T09:40:48.614Z,83.69
2022-11-05T09:43:05.867Z,82.71
2022-11-05T09:45:23.903Z,82.86
2022-11-05T09:47:40.768Z,82.72
2022-11-05T09:49:57.681Z,82.22
2022-11-05T09:52:14.959Z,81.37
2022-11-05T09:54:32.277Z,80.69
2022-11-05T09:56:49.485Z,81.84
2022-11-05T09:59:06.522Z,81.52
2022-11-05T10:01:24.898Z,82.18
2022-11-05T10:03:43.170Z,82.55
2022-11-05T10:06:00.133Z,83.43
2022-11-05T10:08:17.168Z,83.94
2022-11-05T10:10:40.300Z,84.54
2022-11-05T10:12:58.271Z,83.14
2022-11-05T10:15:16.517Z,80.05
2022-11-05T10:17:38.724Z,78.41
2022-11-05T10:19:56.193Z,78.12
2022-11-05T10:22:13.116Z,77.73
2022-11-05T10:24:31.161Z,78.19
2022-11-05T10:26:48.437Z,77.09
2022-11-05T10:29:06.433Z,79.03
2022-11-05T10:31:23.403Z,79.06
2022-11-05T10:33:40.660Z,79.56
2022-11-05T10:35:57.622Z,81.59
2022-11-05T10:38:14.864Z,83.08
2022-11-05T10:40:33.157Z,83.99
2022-11-05T10:42:50.233Z,82.45
2022-11-05T10:45:07.275Z,82.93
2022-11-05T10:47:24.254Z,82.73
2022-11-05T10:49:41.542Z,81.51
2022-11-05T10:51:58.515Z,82.01
2022-11-05T10:54:15.838Z,82.33
2022-11-05T10:56:32.857Z,82.97
2022-11-05T10:58:50.089Z,83.90
2022-11-05T11:01:07.170Z,84.60
2022-11-05T11:03:24.156Z,84.28
2022-11-05T11:05:41.357Z,83.89
2022-11-05T11:07:58.653Z,84.09
2022-11-05T11:10:16.034Z,82.94
2022-11-05T11:12:38.201Z,83.91
2022-11-05T11:14:57.955Z,82.61
2022-11-05T11:17:14.863Z,81.10
2022-11-05T11:19:31.932Z,78.86
2022-11-05T11:21:49.095Z,77.93
2022-11-05T11:24:07.303Z,78.50
2022-11-05T11:26:24.355Z,79.00
2022-11-05T11:28:41.607Z,79.38
2022-11-05T11:30:58.889Z,78.85
2022-11-05T11:33:15.887Z,77.53
2022-11-05T11:35:32.939Z,78.63
2022-11-05T11:37:49.936Z,78.39
2022-11-05T11:40:10.019Z,78.78
2022-11-05T11:42:28.025Z,78.95
2022-11-05T11:44:45.332Z,79.01
2022-11-05T11:47:02.576Z,80.13
2022-11-05T11:49:19.617Z,78.71
2022-11-05T11:51:36.946Z,78.44
2022-11-05T11:53:53.884Z,79.33
2022-11-05T11:56:10.948Z,78.96
2022-11-05T11:58:27.949Z,79.23
2022-11-05T12:00:45.161Z,80.24
2022-11-05T12:03:02.428Z,79.53
2022-11-05T12:05:20.462Z,79.64
2022-11-05T12:07:37.404Z,77.53
2022-11-05T12:09:55.640Z,76.81
2022-11-05T12:12:12.892Z,77.83
2022-11-05T12:14:29.945Z,77.70
2022-11-05T12:16:46.927Z,77.55
2022-11-05T12:19:04.189Z,74.79
2022-11-05T12:21:47.694Z,74.28
2022-11-05T12:23:59.237Z,72.81
2022-11-05T12:26:16.475Z,71.49
2022-11-05T12:28:36.049Z,71.99
2022-11-05T12:30:53.592Z,72.78
2022-11-05T12:33:11.030Z,72.21
2022-11-05T12:35:28.321Z,71.58
2022-11-05T12:37:45.833Z,69.70
2022-11-05T12:40:05.883Z,71.33
2022-11-05T12:42:23.160Z,72.46
2022-11-05T12:44:40.169Z,72.59
2022-11-05T12:46:57.186Z,72.58
2022-11-05T12:49:14.508Z,73.28
2022-11-05T12:51:31.540Z,73.71
2022-11-05T12:53:49.725Z,74.69
2022-11-05T12:56:06.718Z,73.60
2022-11-05T12:58:24.001Z,73.84
2022-11-05T13:00:41.247Z,73.99
2022-11-05T13:02:58.935Z,73.79
2022-11-05T13:05:16.214Z,74.77
2022-11-05T13:07:34.514Z,74.96
2022-11-05T13:09:51.526Z,74.87
2022-11-05T13:12:08.739Z,74.90
2022-11-05T13:14:26.033Z,74.67
2022-11-05T13:16:43.286Z,75.71
2022-11-05T13:19:00.472Z,73.23
2022-11-05T13:21:18.787Z,72.97
2022-11-05T13:23:35.757Z,73.98
2022-11-05T13:25:54.328Z,74.13
2022-11-05T13:28:11.242Z,73.78
2022-11-05T13:30:28.695Z,73.58
2022-11-05T13:32:45.970Z,73.10
2022-11-05T13:35:03.009Z,73.24
2022-11-05T13:37:20.256Z,73.12
2022-11-05T13:39:37.451Z,72.04
2022-11-05T13:41:54.443Z,71.77
2022-11-05T13:44:11.464Z,72.73
2022-11-05T13:46:28.417Z,73.70
2022-11-05T13:48:46.456Z,73.58
2022-11-05T13:51:03.638Z,74.15
2022-11-05T13:53:20.726Z,74.91
2022-11-05T13:55:37.873Z,74.33
2022-11-05T13:57:54.947Z,75.06
2022-11-05T14:00:13.200Z,75.14
2022-11-05T14:02:30.577Z,75.33
2022-11-05T14:04:47.730Z,75.79
2022-11-05T14:07:04.660Z,75.92
2022-11-05T14:09:21.678Z,76.65
2022-11-05T14:11:38.717Z,75.62
2022-11-05T14:13:55.738Z,75.92
2022-11-05T14:16:12.787Z,76.11
2022-11-05T14:18:29.756Z,74.50
2022-11-05T14:20:47.027Z,75.73
2022-11-05T14:23:09.582Z,75.54
2022-11-05T14:25:27.810Z,75.05
2022-11-05T14:27:44.945Z,74.99
2022-11-05T14:30:02.875Z,75.23
2022-11-05T14:32:20.229Z,74.42
2022-11-05T14:34:37.202Z,73.66
2022-11-05T14:36:54.156Z,74.84
2022-11-05T14:39:11.418Z,75.19
2022-11-05T14:41:28.635Z,74.27
2022-11-05T14:43:45.572Z,73.99
2022-11-05T14:46:03.623Z,75.19
2022-11-05T14:48:20.605Z,75.70
2022-11-05T14:50:38.687Z,76.46
2022-11-05T14:52:55.938Z,76.09
2022-11-05T14:55:12.943Z,76.37
2022-11-05T14:57:30.848Z,76.19
2022-11-05T14:59:47.839Z,76.37
2022-11-05T15:02:04.827Z,76.75
2022-11-05T15:04:22.243Z,76.83
2022-11-05T15:06:39.305Z,76.77
2022-11-05T15:08:56.635Z,77.46
2022-11-05T15:11:13.626Z,76.52
2022-11-05T15:13:30.571Z,77.99
2022-11-05T15:15:47.791Z,76.40
2022-11-05T15:18:04.842Z,78.31
2022-11-05T15:20:22.126Z,78.76
2022-11-05T15:22:39.032Z,78.22
2022-11-05T15:24:56.290Z,76.97
2022-11-05T15:27:13.533Z,77.88
2022-11-05T15:29:30.505Z,77.88
2022-11-05T15:31:47.832Z,77.44
2022-11-05T15:34:06.135Z,78.68
2022-11-05T15:36:23.150Z,78.44
2022-11-05T15:38:40.056Z,77.42
2022-11-05T15:40:57.036Z,77.99
2022-11-05T15:43:14.960Z,77.36
2022-11-05T15:45:32.199Z,79.17
2022-11-05T15:47:49.148Z,78.70
2022-11-05T15:50:11.455Z,79.06
2022-11-05T15:52:31.091Z,78.08
2022-11-05T15:54:49.087Z,77.41
2022-11-05T15:57:06.424Z,77.79
2022-11-05T15:59:23.787Z,78.29
2022-11-05T16:01:40.933Z,79.65
2022-11-05T16:03:58.294Z,79.45
2022-11-05T16:06:15.300Z,78.40
2022-11-05T16:08:32.402Z,78.68
2022-11-05T16:10:49.456Z,79.16
2022-11-05T16:13:06.766Z,80.18
2022-11-05T16:15:24.019Z,79.52
2022-11-05T16:17:54.457Z,81.01
2022-11-05T16:20:12.080Z,81.96
2022-11-05T16:22:29.772Z,82.54
2022-11-05T16:24:47.189Z,82.88
2022-11-05T16:27:04.363Z,82.73
2022-11-05T16:29:22.795Z,82.72
2022-11-05T16:31:40.021Z,83.97
2022-11-05T16:33:56.934Z,84.35
2022-11-05T16:36:14.238Z,83.06
2022-11-05T16:38:31.239Z,84.61
2022-11-05T16:40:48.278Z,84.34
2022-11-05T16:43:05.556Z,83.78
2022-11-05T16:45:22.645Z,83.57
2022-11-05T16:47:39.865Z,84.29
2022-11-05T16:49:57.153Z,84.44
2022-11-05T16:52:14.074Z,83.56
2022-11-05T16:54:31.283Z,84.69
2022-11-05T16:56:48.217Z,85.42
2022-11-05T16:59:05.224Z,84.29
2022-11-05T17:01:22.590Z,84.49
2022-11-05T17:03:39.983Z,85.03
2022-11-05T17:05:57.052Z,86.23
2022-11-05T17:08:15.349Z,85.59
2022-11-05T17:10:32.567Z,86.29
2022-11-05T17:12:50.534Z,85.35
2022-11-05T17:15:08.503Z,85.71
2022-11-05T17:17:25.575Z,86.04
2022-11-05T17:19:42.803Z,86.27
2022-11-05T17:21:59.641Z,85.64
2022-11-05T17:24:16.617Z,85.56
2022-11-05T17:26:33.621Z,85.81
2022-11-05T17:28:50.673Z,86.89
2022-11-05T17:31:08.712Z,86.35
2022-11-05T17:33:26.085Z,86.67
2022-11-05T17:35:43.422Z,86.38
2022-11-05T17:38:00.361Z,85.59
2022-11-05T17:40:17.573Z,86.77
2022-11-05T17:42:34.752Z,85.95
2022-11-05T17:44:51.747Z,86.31
2022-11-05T17:47:09.080Z,85.85
2022-11-05T17:49:26.283Z,86.22
2022-11-05T17:51:43.192Z,86.83
2022-11-05T17:54:01.055Z,86.76
2022-11-05T17:56:27.232Z,87.18
2022-11-05T17:58:49.293Z,87.43
2022-11-05T18:01:06.623Z,87.87
2022-11-05T18:03:23.730Z,88.31
2022-11-05T18:05:41.764Z,88.11
2022-11-05T18:07:58.798Z,88.06
2022-11-05T18:10:16.558Z,88.08
2022-11-05T18:12:33.555Z,88.36
2022-11-05T18:14:50.843Z,88.26
2022-11-05T18:17:07.713Z,88.44
2022-11-05T18:19:25.796Z,88.30
2022-11-05T18:21:42.874Z,88.25
2022-11-05T18:23:59.924Z,88.23
2022-11-05T18:26:16.854Z,88.49
2022-11-05T18:28:33.881Z,88.07
2022-11-05T18:30:51.165Z,88.30
2022-11-05T18:33:09.401Z,88.42
2022-11-05T18:35:26.622Z,88.51
2022-11-05T18:37:44.166Z,88.61
2022-11-05T18:40:01.504Z,88.68
2022-11-05T18:42:19.777Z,88.50
2022-11-05T18:44:39.449Z,89.03
2022-11-05T18:46:58.861Z,88.88
2022-11-05T18:49:16.035Z,88.94
2022-11-05T18:51:33.093Z,89.11
2022-11-05T18:53:50.394Z,89.22
2022-11-05T18:56:07.520Z,89.21
2022-11-05T18:58:24.501Z,89.05
2022-11-05T19:00:41.808Z,89.04
2022-11-05T19:02:59.143Z,88.77
2022-11-05T19:05:32.422Z,89.04
2022-11-05T19:07:49.876Z,88.97
2022-11-05T19:10:06.918Z,88.91
2022-11-05T19:12:23.975Z,89.28
2022-11-05T19:14:40.931Z,88.82
2022-11-05T19:16:58.280Z,88.86
2022-11-05T19:19:15.199Z,89.00
2022-11-05T19:21:33.287Z,88.99
2022-11-05T19:23:50.520Z,89.38
2022-11-05T19:26:07.870Z,89.25
2022-11-05T19:28:24.843Z,89.66
2022-11-05T19:30:42.088Z,89.85
2022-11-05T19:32:59.393Z,89.46
2022-11-05T19:35:16.607Z,89.66
2022-11-05T19:37:33.651Z,89.25
2022-11-05T19:39:50.590Z,89.79
2022-11-05T19:42:07.831Z,90.60
2022-11-05T19:44:24.803Z,90.05
2022-11-05T19:46:42.816Z,90.32
2022-11-05T19:48:59.914Z,90.74
2022-11-05T19:51:17.221Z,89.99
2022-11-05T19:53:35.144Z,90.07
2022-11-05T19:55:52.231Z,90.33
2022-11-05T19:58:10.491Z,90.29
2022-11-05T20:00:28.006Z,90.19
2022-11-05T20:02:45.156Z,91.05
2022-11-05T20:05:02.284Z,90.80
2022-11-05T20:07:19.356Z,91.00
2022-11-05T20:09:37.609Z,90.92
2022-11-05T20:11:54.955Z,91.59
2022-11-05T20:14:11.966Z,91.21
2022-11-05T20:16:29.231Z,91.26
2022-11-05T20:18:47.182Z,91.35
2022-11-05T20:21:04.146Z,91.26
2022-11-05T20:23:21.078Z,90.99
2022-11-05T20:25:39.493Z,91.55
2022-11-05T20:27:56.831Z,91.38
2022-11-05T20:30:13.882Z,92.00
2022-11-05T20:32:30.955Z,92.24
2022-11-05T20:34:48.207Z,92.14
2022-11-05T20:37:05.442Z,91.70
2022-11-05T20:39:22.379Z,91.46
2022-11-05T20:41:39.294Z,91.33
2022-11-05T20:43:57.314Z,91.32
2022-11-05T20:46:14.331Z,91.61
2022-11-05T20:48:31.617Z,91.86
2022-11-05T20:50:48.591Z,92.14
2022-11-05T20:53:05.522Z,92.48
2022-11-05T20:55:23.813Z,92.05
2022-11-05T20:57:40.887Z,92.44
2022-11-05T20:59:58.179Z,92.37
2022-11-05T21:02:16.320Z,92.30
2022-11-05T21:04:33.668Z,92.38
2022-11-05T21:06:50.645Z,92.11
2022-11-05T21:09:07.681Z,92.08
2022-11-05T21:11:24.616Z,92.12
2022-11-05T21:13:41.607Z,92.29
2022-11-05T21:15:58.654Z,92.11
2022-11-05T21:18:15.541Z,92.17
2022-11-05T21:20:32.979Z,92.31
2022-11-05T21:22:51.061Z,92.30
2022-11-05T21:25:08.284Z,92.38
2022-11-05T21:27:26.233Z,92.42
2022-11-05T21:29:43.519Z,92.47
2022-11-05T21:32:00.798Z,92.50
2022-11-05T21:34:17.828Z,92.62
2022-11-05T21:36:36.010Z,92.61
2022-11-05T21:38:52.973Z,92.37
2022-11-05T21:41:09.943Z,92.35
2022-11-05T21:43:26.940Z,92.11
2022-11-05T21:45:43.923Z,92.39
2022-11-05T21:48:01.215Z,92.56
2022-11-05T21:50:21.778Z,92.69
2022-11-05T21:52:39.439Z,92.89
2022-11-05T21:54:56.456Z,93.10
2022-11-05T21:57:13.701Z,92.84
2022-11-05T21:59:30.760Z,92.39
2022-11-05T22:01:48.008Z,92.08
2022-11-05T22:04:05.239Z,92.32
2022-11-05T22:06:22.328Z,92.22
2022-11-05T22:08:39.582Z,92.37
2022-11-05T22:10:56.603Z,92.59
2022-11-05T22:13:13.548Z,92.67
2022-11-05T22:15:30.528Z,92.92
2022-11-05T22:17:48.412Z,92.78
2022-11-05T22:20:05.417Z,92.56
2022-11-05T22:22:22.435Z,92.08
2022-11-05T22:24:39.684Z,91.78
2022-11-05T22:26:56.955Z,91.80
2022-11-05T22:29:15.199Z,91.39
2022-11-05T22:31:36.162Z,91.55
2022-11-05T22:33:53.769Z,91.08
2022-11-05T22:36:11.063Z,91.16
2022-11-05T22:38:28.356Z,91.08
2022-11-05T22:40:45.481Z,91.16
2022-11-05T22:43:02.578Z,90.74
2022-11-05T22:45:19.836Z,91.07
2022-11-05T22:47:37.167Z,90.98
2022-11-05T22:49:56.942Z,90.81
2022-11-05T22:52:14.413Z,90.78
2022-11-05T22:54:36.390Z,91.19
2022-11-05T22:56:56.099Z,91.14
2022-11-05T22:59:15.159Z,91.38
2022-11-05T23:01:32.332Z,91.42
2022-11-05T23:03:49.526Z,91.60
2022-11-05T23:06:13.780Z,91.39
2022-11-05T23:08:31.216Z,91.25
2022-11-05T23:10:48.218Z,91.35
2022-11-05T23:13:06.436Z,91.25
2022-11-05T23:15:24.430Z,90.97
2022-11-05T23:17:41.519Z,91.22
2022-11-05T23:20:01.970Z,91.10
2022-11-05T23:22:19.391Z,91.01
2022-11-05T23:24:36.859Z,90.80
2022-11-05T23:26:54.269Z,90.85
2022-11-05T23:29:12.434Z,90.75
2022-11-05T23:31:29.512Z,90.61
2022-11-05T23:33:48.270Z,91.39
2022-11-05T23:36:05.714Z,91.01
2022-11-05T23:38:22.802Z,91.07
2022-11-05T23:40:40.940Z,91.54
2022-11-05T23:42:58.080Z,91.61
2022-11-05T23:45:15.164Z,91.72
2022-11-05T23:47:32.505Z,91.70
2022-11-05T23:49:52.118Z,91.88
2022-11-05T23:52:09.122Z,91.75
2022-11-05T23:54:26.178Z,92.44
2022-11-05T23:56:44.544Z,92.48
2022-11-05T23:59:01.595Z,92.24
